sensor_id;sensor_type;location;lat;lon;timestamp;P1;durP1;ratioP1;P2;durP2;ratioP2
57055;SDS011;42945;51.718;5.324;2022-08-01T00:00:36;13.63;;;6.90;;
57055;SDS011;42945;51.718;5.324;2022-08-01T00:03:01;17.48;;;7.10;;
57055;SDS011;42945;51.718;5.324;2022-08-01T00:05:28;11.68;;;6.70;;
57055;SDS011;42945;51.718;5.324;2022-08-01T00:07:53;14.75;;;6.95;;
57055;SDS011;42945;51.718;5.324;2022-08-01T00:10:19;13.30;;;6.88;;
57055;SDS011;42945;51.718;5.324;2022-08-01T00:12:44;13.15;;;7.70;;
57055;SDS011;42945;51.718;5.324;2022-08-01T00:15:11;14.05;;;6.88;;
57055;SDS011;42945;51.718;5.324;2022-08-01T00:17:38;14.32;;;7.55;;
57055;SDS011;42945;51.718;5.324;2022-08-01T00:20:04;10.73;;;7.15;;
57055;SDS011;42945;51.718;5.324;2022-08-01T00:22:32;12.77;;;7.20;;
57055;SDS011;42945;51.718;5.324;2022-08-01T00:24:57;14.82;;;7.85;;
57055;SDS011;42945;51.718;5.324;2022-08-01T00:27:22;13.73;;;7.70;;
57055;SDS011;42945;51.718;5.324;2022-08-01T00:29:48;11.40;;;6.72;;
57055;SDS011;42945;51.718;5.324;2022-08-01T00:32:13;13.88;;;7.82;;
57055;SDS011;42945;51.718;5.324;2022-08-01T00:34:38;14.00;;;8.10;;
57055;SDS011;42945;51.718;5.324;2022-08-01T00:37:04;13.63;;;7.18;;
57055;SDS011;42945;51.718;5.324;2022-08-01T00:39:29;15.15;;;7.78;;
57055;SDS011;42945;51.718;5.324;2022-08-01T00:41:54;12.20;;;7.30;;
57055;SDS011;42945;51.718;5.324;2022-08-01T00:44:20;15.13;;;7.43;;
57055;SDS011;42945;51.718;5.324;2022-08-01T00:46:45;14.68;;;7.30;;
57055;SDS011;42945;51.718;5.324;2022-08-01T00:49:11;15.02;;;7.75;;
57055;SDS011;42945;51.718;5.324;2022-08-01T00:51:36;12.55;;;7.60;;
57055;SDS011;42945;51.718;5.324;2022-08-01T00:54:02;14.07;;;8.35;;
57055;SDS011;42945;51.718;5.324;2022-08-01T00:56:27;17.80;;;8.55;;
57055;SDS011;42945;51.718;5.324;2022-08-01T00:58:54;14.85;;;8.82;;
57055;SDS011;42945;51.718;5.324;2022-08-01T01:01:20;15.50;;;7.75;;
57055;SDS011;42945;51.718;5.324;2022-08-01T01:03:47;15.30;;;7.50;;
57055;SDS011;42945;51.718;5.324;2022-08-01T01:11:37;14.02;;;8.25;;
57055;SDS011;42945;51.718;5.324;2022-08-01T01:14:10;14.45;;;8.10;;
57055;SDS011;42945;51.718;5.324;2022-08-01T01:16:41;14.88;;;7.35;;
57055;SDS011;42945;51.718;5.324;2022-08-01T01:19:10;15.50;;;8.00;;
57055;SDS011;42945;51.718;5.324;2022-08-01T01:21:54;16.67;;;7.75;;
57055;SDS011;42945;51.718;5.324;2022-08-01T01:27:10;16.08;;;8.02;;
57055;SDS011;42945;51.718;5.324;2022-08-01T01:29:44;15.85;;;7.80;;
57055;SDS011;42945;51.718;5.324;2022-08-01T01:32:18;14.00;;;7.78;;
57055;SDS011;42945;51.718;5.324;2022-08-01T01:34:51;13.98;;;7.72;;
57055;SDS011;42945;51.718;5.324;2022-08-01T01:37:20;16.20;;;8.23;;
57055;SDS011;42945;51.718;5.324;2022-08-01T01:39:49;13.68;;;7.75;;
57055;SDS011;42945;51.718;5.324;2022-08-01T01:42:16;16.50;;;7.10;;
57055;SDS011;42945;51.718;5.324;2022-08-01T01:44:42;16.13;;;7.63;;
57055;SDS011;42945;51.718;5.324;2022-08-01T01:47:09;15.35;;;7.80;;
57055;SDS011;42945;51.718;5.324;2022-08-01T01:49:37;16.40;;;7.82;;
57055;SDS011;42945;51.718;5.324;2022-08-01T01:52:04;16.13;;;7.85;;
57055;SDS011;42945;51.718;5.324;2022-08-01T01:54:33;16.17;;;7.30;;
57055;SDS011;42945;51.718;5.324;2022-08-01T01:57:03;14.68;;;7.13;;
57055;SDS011;42945;51.718;5.324;2022-08-01T01:59:30;16.50;;;7.40;;
57055;SDS011;42945;51.718;5.324;2022-08-01T02:01:58;13.25;;;6.78;;
57055;SDS011;42945;51.718;5.324;2022-08-01T02:04:26;15.48;;;7.55;;
57055;SDS011;42945;51.718;5.324;2022-08-01T02:06:53;17.35;;;7.97;;
57055;SDS011;42945;51.718;5.324;2022-08-01T02:09:19;16.83;;;7.63;;
57055;SDS011;42945;51.718;5.324;2022-08-01T02:11:47;17.13;;;7.47;;
57055;SDS011;42945;51.718;5.324;2022-08-01T02:14:14;14.80;;;7.63;;
57055;SDS011;42945;51.718;5.324;2022-08-01T02:16:42;17.25;;;7.47;;
57055;SDS011;42945;51.718;5.324;2022-08-01T02:19:12;14.50;;;7.95;;
57055;SDS011;42945;51.718;5.324;2022-08-01T02:21:44;20.80;;;8.13;;
57055;SDS011;42945;51.718;5.324;2022-08-01T02:27:01;18.88;;;7.85;;
57055;SDS011;42945;51.718;5.324;2022-08-01T02:29:35;17.70;;;8.20;;
57055;SDS011;42945;51.718;5.324;2022-08-01T02:32:13;19.83;;;8.00;;
57055;SDS011;42945;51.718;5.324;2022-08-01T02:34:45;16.65;;;8.07;;
57055;SDS011;42945;51.718;5.324;2022-08-01T02:37:13;18.75;;;7.70;;
57055;SDS011;42945;51.718;5.324;2022-08-01T02:39:39;19.05;;;8.32;;
57055;SDS011;42945;51.718;5.324;2022-08-01T02:42:06;15.60;;;8.30;;
57055;SDS011;42945;51.718;5.324;2022-08-01T02:44:35;15.57;;;8.52;;
57055;SDS011;42945;51.718;5.324;2022-08-01T02:47:04;18.73;;;8.50;;
57055;SDS011;42945;51.718;5.324;2022-08-01T02:49:34;19.75;;;8.50;;
57055;SDS011;42945;51.718;5.324;2022-08-01T02:52:06;18.65;;;8.73;;
57055;SDS011;42945;51.718;5.324;2022-08-01T02:54:33;19.73;;;9.40;;
57055;SDS011;42945;51.718;5.324;2022-08-01T02:57:01;20.00;;;9.55;;
57055;SDS011;42945;51.718;5.324;2022-08-01T02:59:28;20.17;;;9.68;;
57055;SDS011;42945;51.718;5.324;2022-08-01T03:01:57;21.55;;;9.80;;
57055;SDS011;42945;51.718;5.324;2022-08-01T03:04:24;19.95;;;9.88;;
57055;SDS011;42945;51.718;5.324;2022-08-01T03:06:51;19.35;;;9.27;;
57055;SDS011;42945;51.718;5.324;2022-08-01T03:09:19;31.17;;;10.75;;
57055;SDS011;42945;51.718;5.324;2022-08-01T03:11:45;22.58;;;10.20;;
57055;SDS011;42945;51.718;5.324;2022-08-01T03:14:12;21.52;;;10.32;;
57055;SDS011;42945;51.718;5.324;2022-08-01T03:16:39;22.92;;;10.52;;
57055;SDS011;42945;51.718;5.324;2022-08-01T03:19:07;28.17;;;10.98;;
57055;SDS011;42945;51.718;5.324;2022-08-01T03:21:34;22.67;;;10.32;;
57055;SDS011;42945;51.718;5.324;2022-08-01T03:24:02;26.98;;;11.40;;
57055;SDS011;42945;51.718;5.324;2022-08-01T03:26:31;27.20;;;11.75;;
57055;SDS011;42945;51.718;5.324;2022-08-01T03:28:59;23.10;;;11.75;;
57055;SDS011;42945;51.718;5.324;2022-08-01T03:31:31;27.83;;;11.35;;
57055;SDS011;42945;51.718;5.324;2022-08-01T03:33:59;27.48;;;11.00;;
57055;SDS011;42945;51.718;5.324;2022-08-01T03:36:25;25.08;;;11.68;;
57055;SDS011;42945;51.718;5.324;2022-08-01T03:38:53;25.25;;;10.82;;
57055;SDS011;42945;51.718;5.324;2022-08-01T03:41:22;27.23;;;10.88;;
57055;SDS011;42945;51.718;5.324;2022-08-01T03:43:52;25.92;;;11.18;;
57055;SDS011;42945;51.718;5.324;2022-08-01T03:46:25;25.30;;;11.25;;
57055;SDS011;42945;51.718;5.324;2022-08-01T03:48:55;26.58;;;11.00;;
57055;SDS011;42945;51.718;5.324;2022-08-01T03:51:25;23.90;;;10.95;;
57055;SDS011;42945;51.718;5.324;2022-08-01T03:53:52;24.40;;;10.18;;
57055;SDS011;42945;51.718;5.324;2022-08-01T03:56:20;21.33;;;9.45;;
57055;SDS011;42945;51.718;5.324;2022-08-01T03:58:47;23.73;;;9.27;;
57055;SDS011;42945;51.718;5.324;2022-08-01T04:01:14;19.17;;;8.65;;
57055;SDS011;42945;51.718;5.324;2022-08-01T04:03:42;18.73;;;8.65;;
57055;SDS011;42945;51.718;5.324;2022-08-01T04:06:08;16.67;;;7.95;;
57055;SDS011;42945;51.718;5.324;2022-08-01T04:08:38;18.35;;;8.77;;
57055;SDS011;42945;51.718;5.324;2022-08-01T04:11:04;19.05;;;8.43;;
57055;SDS011;42945;51.718;5.324;2022-08-01T04:13:30;23.40;;;8.48;;
57055;SDS011;42945;51.718;5.324;2022-08-01T04:15:56;21.70;;;8.55;;
57055;SDS011;42945;51.718;5.324;2022-08-01T04:18:21;14.52;;;8.00;;
57055;SDS011;42945;51.718;5.324;2022-08-01T04:20:47;18.80;;;8.05;;
57055;SDS011;42945;51.718;5.324;2022-08-01T04:23:13;16.77;;;8.15;;
57055;SDS011;42945;51.718;5.324;2022-08-01T04:25:41;14.93;;;7.38;;
57055;SDS011;42945;51.718;5.324;2022-08-01T04:28:10;16.40;;;7.30;;
57055;SDS011;42945;51.718;5.324;2022-08-01T04:30:41;14.77;;;7.13;;
57055;SDS011;42945;51.718;5.324;2022-08-01T04:33:09;13.38;;;7.53;;
57055;SDS011;42945;51.718;5.324;2022-08-01T04:35:36;14.25;;;6.32;;
57055;SDS011;42945;51.718;5.324;2022-08-01T04:38:05;14.98;;;6.97;;
57055;SDS011;42945;51.718;5.324;2022-08-01T04:40:34;14.77;;;7.03;;
57055;SDS011;42945;51.718;5.324;2022-08-01T04:43:00;16.40;;;7.18;;
57055;SDS011;42945;51.718;5.324;2022-08-01T04:45:26;12.98;;;6.03;;
57055;SDS011;42945;51.718;5.324;2022-08-01T04:47:52;13.50;;;5.97;;
57055;SDS011;42945;51.718;5.324;2022-08-01T04:50:18;12.93;;;5.78;;
57055;SDS011;42945;51.718;5.324;2022-08-01T04:52:46;13.20;;;5.50;;
57055;SDS011;42945;51.718;5.324;2022-08-01T04:55:12;8.80;;;5.05;;
57055;SDS011;42945;51.718;5.324;2022-08-01T04:57:39;12.32;;;5.00;;
57055;SDS011;42945;51.718;5.324;2022-08-01T05:00:07;11.20;;;5.00;;
57055;SDS011;42945;51.718;5.324;2022-08-01T05:02:33;9.85;;;5.28;;
57055;SDS011;42945;51.718;5.324;2022-08-01T05:04:59;11.07;;;5.13;;
57055;SDS011;42945;51.718;5.324;2022-08-01T05:07:24;9.50;;;4.72;;
57055;SDS011;42945;51.718;5.324;2022-08-01T05:09:50;9.40;;;5.03;;
57055;SDS011;42945;51.718;5.324;2022-08-01T05:12:15;9.20;;;4.50;;
57055;SDS011;42945;51.718;5.324;2022-08-01T05:14:41;8.23;;;4.68;;
57055;SDS011;42945;51.718;5.324;2022-08-01T05:17:07;9.43;;;4.80;;
57055;SDS011;42945;51.718;5.324;2022-08-01T05:19:34;8.55;;;4.15;;
57055;SDS011;42945;51.718;5.324;2022-08-01T05:22:03;9.20;;;4.03;;
57055;SDS011;42945;51.718;5.324;2022-08-01T05:24:30;9.68;;;4.60;;
57055;SDS011;42945;51.718;5.324;2022-08-01T05:26:56;7.68;;;4.13;;
57055;SDS011;42945;51.718;5.324;2022-08-01T05:29:23;7.75;;;3.95;;
57055;SDS011;42945;51.718;5.324;2022-08-01T05:31:49;6.95;;;3.40;;
57055;SDS011;42945;51.718;5.324;2022-08-01T05:34:15;5.53;;;3.80;;
57055;SDS011;42945;51.718;5.324;2022-08-01T05:36:40;5.05;;;3.05;;
57055;SDS011;42945;51.718;5.324;2022-08-01T05:39:05;5.70;;;2.80;;
57055;SDS011;42945;51.718;5.324;2022-08-01T05:41:31;7.43;;;2.90;;
57055;SDS011;42945;51.718;5.324;2022-08-01T05:43:56;7.05;;;3.40;;
57055;SDS011;42945;51.718;5.324;2022-08-01T05:46:21;6.20;;;3.28;;
57055;SDS011;42945;51.718;5.324;2022-08-01T05:48:47;5.78;;;3.40;;
57055;SDS011;42945;51.718;5.324;2022-08-01T05:51:12;5.47;;;3.50;;
57055;SDS011;42945;51.718;5.324;2022-08-01T05:53:37;5.13;;;3.38;;
57055;SDS011;42945;51.718;5.324;2022-08-01T05:56:03;5.15;;;3.42;;
57055;SDS011;42945;51.718;5.324;2022-08-01T05:58:28;6.35;;;3.88;;
57055;SDS011;42945;51.718;5.324;2022-08-01T06:00:53;7.15;;;4.07;;
57055;SDS011;42945;51.718;5.324;2022-08-01T06:03:19;7.13;;;4.50;;
57055;SDS011;42945;51.718;5.324;2022-08-01T06:05:46;6.88;;;4.65;;
57055;SDS011;42945;51.718;5.324;2022-08-01T06:08:11;7.70;;;5.32;;
57055;SDS011;42945;51.718;5.324;2022-08-01T06:10:36;7.18;;;4.70;;
57055;SDS011;42945;51.718;5.324;2022-08-01T06:13:02;6.85;;;4.45;;
57055;SDS011;42945;51.718;5.324;2022-08-01T06:15:28;8.40;;;4.80;;
57055;SDS011;42945;51.718;5.324;2022-08-01T06:17:54;8.07;;;4.88;;
57055;SDS011;42945;51.718;5.324;2022-08-01T06:20:20;7.95;;;5.50;;
57055;SDS011;42945;51.718;5.324;2022-08-01T06:22:45;7.28;;;5.30;;
57055;SDS011;42945;51.718;5.324;2022-08-01T06:25:10;13.15;;;6.03;;
57055;SDS011;42945;51.718;5.324;2022-08-01T06:27:35;9.77;;;5.90;;
57055;SDS011;42945;51.718;5.324;2022-08-01T06:30:01;12.05;;;6.10;;
57055;SDS011;42945;51.718;5.324;2022-08-01T06:32:27;10.20;;;6.78;;
57055;SDS011;42945;51.718;5.324;2022-08-01T06:34:55;9.13;;;5.72;;
57055;SDS011;42945;51.718;5.324;2022-08-01T06:37:20;8.27;;;6.18;;
57055;SDS011;42945;51.718;5.324;2022-08-01T06:39:46;8.48;;;5.93;;
57055;SDS011;42945;51.718;5.324;2022-08-01T06:42:11;8.25;;;5.65;;
57055;SDS011;42945;51.718;5.324;2022-08-01T06:44:37;7.85;;;5.70;;
57055;SDS011;42945;51.718;5.324;2022-08-01T06:47:03;9.25;;;5.95;;
57055;SDS011;42945;51.718;5.324;2022-08-01T06:49:28;11.05;;;6.38;;
57055;SDS011;42945;51.718;5.324;2022-08-01T06:51:53;10.15;;;5.88;;
57055;SDS011;42945;51.718;5.324;2022-08-01T06:54:19;12.55;;;6.07;;
57055;SDS011;42945;51.718;5.324;2022-08-01T06:56:44;9.00;;;5.85;;
57055;SDS011;42945;51.718;5.324;2022-08-01T06:59:09;6.70;;;5.97;;
57055;SDS011;42945;51.718;5.324;2022-08-01T07:01:35;10.07;;;6.50;;
57055;SDS011;42945;51.718;5.324;2022-08-01T07:04:01;9.70;;;6.05;;
57055;SDS011;42945;51.718;5.324;2022-08-01T07:06:27;9.63;;;6.50;;
57055;SDS011;42945;51.718;5.324;2022-08-01T07:08:52;7.82;;;5.60;;
57055;SDS011;42945;51.718;5.324;2022-08-01T07:11:18;8.13;;;5.65;;
57055;SDS011;42945;51.718;5.324;2022-08-01T07:13:44;7.43;;;4.90;;
57055;SDS011;42945;51.718;5.324;2022-08-01T07:16:13;9.55;;;5.00;;
57055;SDS011;42945;51.718;5.324;2022-08-01T07:18:39;6.75;;;4.25;;
57055;SDS011;42945;51.718;5.324;2022-08-01T07:21:04;7.88;;;4.38;;
57055;SDS011;42945;51.718;5.324;2022-08-01T07:23:30;4.88;;;3.45;;
57055;SDS011;42945;51.718;5.324;2022-08-01T07:25:55;5.35;;;3.63;;
57055;SDS011;42945;51.718;5.324;2022-08-01T07:28:21;6.25;;;3.60;;
57055;SDS011;42945;51.718;5.324;2022-08-01T07:30:46;4.95;;;3.20;;
57055;SDS011;42945;51.718;5.324;2022-08-01T07:33:11;4.82;;;2.58;;
57055;SDS011;42945;51.718;5.324;2022-08-01T07:35:37;4.78;;;2.75;;
57055;SDS011;42945;51.718;5.324;2022-08-01T07:38:04;3.03;;;2.55;;
57055;SDS011;42945;51.718;5.324;2022-08-01T07:40:30;3.60;;;2.35;;
57055;SDS011;42945;51.718;5.324;2022-08-01T07:42:55;3.80;;;2.35;;
57055;SDS011;42945;51.718;5.324;2022-08-01T07:45:21;3.17;;;2.22;;
57055;SDS011;42945;51.718;5.324;2022-08-01T07:47:49;3.75;;;1.90;;
57055;SDS011;42945;51.718;5.324;2022-08-01T07:50:14;4.10;;;2.13;;
57055;SDS011;42945;51.718;5.324;2022-08-01T07:52:41;4.65;;;1.70;;
57055;SDS011;42945;51.718;5.324;2022-08-01T07:55:07;3.05;;;1.80;;
57055;SDS011;42945;51.718;5.324;2022-08-01T07:57:34;1.50;;;1.27;;
57055;SDS011;42945;51.718;5.324;2022-08-01T08:00:00;2.53;;;1.23;;
57055;SDS011;42945;51.718;5.324;2022-08-01T08:02:25;3.28;;;1.20;;
57055;SDS011;42945;51.718;5.324;2022-08-01T08:04:50;2.53;;;1.13;;
57055;SDS011;42945;51.718;5.324;2022-08-01T08:07:16;2.83;;;1.20;;
57055;SDS011;42945;51.718;5.324;2022-08-01T08:09:41;1.55;;;1.05;;
57055;SDS011;42945;51.718;5.324;2022-08-01T08:12:07;1.38;;;0.70;;
57055;SDS011;42945;51.718;5.324;2022-08-01T08:14:32;1.30;;;0.90;;
57055;SDS011;42945;51.718;5.324;2022-08-01T08:16:58;3.13;;;1.25;;
57055;SDS011;42945;51.718;5.324;2022-08-01T08:19:24;3.17;;;1.92;;
57055;SDS011;42945;51.718;5.324;2022-08-01T08:21:49;1.58;;;1.10;;
57055;SDS011;42945;51.718;5.324;2022-08-01T08:24:14;3.67;;;1.25;;
57055;SDS011;42945;51.718;5.324;2022-08-01T08:26:46;1.50;;;1.27;;
57055;SDS011;42945;51.718;5.324;2022-08-01T08:29:16;6.30;;;1.50;;
57055;SDS011;42945;51.718;5.324;2022-08-01T08:31:41;1.20;;;1.10;;
57055;SDS011;42945;51.718;5.324;2022-08-01T08:34:07;2.60;;;1.00;;
57055;SDS011;42945;51.718;5.324;2022-08-01T08:36:32;2.55;;;1.50;;
57055;SDS011;42945;51.718;5.324;2022-08-01T08:38:58;1.73;;;1.25;;
57055;SDS011;42945;51.718;5.324;2022-08-01T08:41:25;1.58;;;0.90;;
57055;SDS011;42945;51.718;5.324;2022-08-01T08:43:50;2.80;;;1.25;;
57055;SDS011;42945;51.718;5.324;2022-08-01T08:46:16;1.92;;;0.98;;
57055;SDS011;42945;51.718;5.324;2022-08-01T08:48:43;1.10;;;0.90;;
57055;SDS011;42945;51.718;5.324;2022-08-01T08:51:09;1.75;;;1.10;;
57055;SDS011;42945;51.718;5.324;2022-08-01T08:53:36;1.00;;;0.60;;
57055;SDS011;42945;51.718;5.324;2022-08-01T08:56:08;2.38;;;1.00;;
57055;SDS011;42945;51.718;5.324;2022-08-01T08:58:36;1.88;;;0.77;;
57055;SDS011;42945;51.718;5.324;2022-08-01T09:01:06;1.92;;;1.20;;
57055;SDS011;42945;51.718;5.324;2022-08-01T09:03:33;1.48;;;1.00;;
57055;SDS011;42945;51.718;5.324;2022-08-01T09:05:59;1.23;;;1.13;;
57055;SDS011;42945;51.718;5.324;2022-08-01T09:08:25;2.05;;;1.00;;
57055;SDS011;42945;51.718;5.324;2022-08-01T09:10:50;1.80;;;1.10;;
57055;SDS011;42945;51.718;5.324;2022-08-01T09:13:15;1.88;;;1.10;;
57055;SDS011;42945;51.718;5.324;2022-08-01T09:15:45;1.23;;;0.70;;
57055;SDS011;42945;51.718;5.324;2022-08-01T09:23:50;3.13;;;1.08;;
57055;SDS011;42945;51.718;5.324;2022-08-01T09:26:35;3.17;;;1.30;;
57055;SDS011;42945;51.718;5.324;2022-08-01T09:29:03;1.52;;;0.80;;
57055;SDS011;42945;51.718;5.324;2022-08-01T09:31:38;0.70;;;0.70;;
57055;SDS011;42945;51.718;5.324;2022-08-01T09:34:04;1.63;;;0.60;;
57055;SDS011;42945;51.718;5.324;2022-08-01T09:36:43;4.45;;;0.85;;
57055;SDS011;42945;51.718;5.324;2022-08-01T09:39:23;1.85;;;0.73;;
57055;SDS011;42945;51.718;5.324;2022-08-01T09:41:51;1.30;;;0.82;;
57055;SDS011;42945;51.718;5.324;2022-08-01T09:44:18;1.42;;;1.00;;
57055;SDS011;42945;51.718;5.324;2022-08-01T09:47:00;1.65;;;0.90;;
57055;SDS011;42945;51.718;5.324;2022-08-01T09:49:27;1.42;;;0.80;;
57055;SDS011;42945;51.718;5.324;2022-08-01T09:51:54;1.73;;;0.70;;
57055;SDS011;42945;51.718;5.324;2022-08-01T09:54:30;2.47;;;0.70;;
57055;SDS011;42945;51.718;5.324;2022-08-01T09:57:11;1.55;;;0.90;;
57055;SDS011;42945;51.718;5.324;2022-08-01T09:59:44;1.02;;;0.75;;
57055;SDS011;42945;51.718;5.324;2022-08-01T10:02:12;2.17;;;0.40;;
57055;SDS011;42945;51.718;5.324;2022-08-01T10:04:50;2.40;;;0.30;;
57055;SDS011;42945;51.718;5.324;2022-08-01T10:07:16;0.40;;;0.30;;
57055;SDS011;42945;51.718;5.324;2022-08-01T10:09:42;0.70;;;0.35;;
57055;SDS011;42945;51.718;5.324;2022-08-01T10:12:09;0.43;;;0.30;;
57055;SDS011;42945;51.718;5.324;2022-08-01T10:14:35;1.70;;;0.52;;
57055;SDS011;42945;51.718;5.324;2022-08-01T10:17:02;1.52;;;0.20;;
57055;SDS011;42945;51.718;5.324;2022-08-01T10:19:30;1.08;;;0.50;;
57055;SDS011;42945;51.718;5.324;2022-08-01T10:21:56;1.83;;;0.60;;
57055;SDS011;42945;51.718;5.324;2022-08-01T10:24:22;2.47;;;0.70;;
57055;SDS011;42945;51.718;5.324;2022-08-01T10:26:51;3.83;;;0.93;;
57055;SDS011;42945;51.718;5.324;2022-08-01T10:29:20;1.58;;;0.80;;
57055;SDS011;42945;51.718;5.324;2022-08-01T10:31:47;1.85;;;0.60;;
57055;SDS011;42945;51.718;5.324;2022-08-01T10:34:13;2.80;;;0.82;;
57055;SDS011;42945;51.718;5.324;2022-08-01T10:36:42;2.80;;;0.80;;
57055;SDS011;42945;51.718;5.324;2022-08-01T10:39:10;1.85;;;0.70;;
57055;SDS011;42945;51.718;5.324;2022-08-01T10:41:36;3.22;;;1.00;;
57055;SDS011;42945;51.718;5.324;2022-08-01T10:44:02;4.40;;;1.20;;
57055;SDS011;42945;51.718;5.324;2022-08-01T10:46:29;4.35;;;1.40;;
57055;SDS011;42945;51.718;5.324;2022-08-01T10:49:01;3.45;;;1.35;;
57055;SDS011;42945;51.718;5.324;2022-08-01T10:51:29;4.95;;;1.40;;
57055;SDS011;42945;51.718;5.324;2022-08-01T10:53:55;5.38;;;1.63;;
57055;SDS011;42945;51.718;5.324;2022-08-01T10:56:23;5.88;;;1.77;;
57055;SDS011;42945;51.718;5.324;2022-08-01T10:58:49;4.72;;;1.85;;
57055;SDS011;42945;51.718;5.324;2022-08-01T11:01:29;6.55;;;1.88;;
57055;SDS011;42945;51.718;5.324;2022-08-01T11:06:35;4.55;;;2.05;;
57055;SDS011;42945;51.718;5.324;2022-08-01T11:09:05;6.43;;;2.17;;
57055;SDS011;42945;51.718;5.324;2022-08-01T11:14:34;6.90;;;2.28;;
57055;SDS011;42945;51.718;5.324;2022-08-01T11:17:32;5.80;;;2.75;;
57055;SDS011;42945;51.718;5.324;2022-08-01T11:30:45;7.82;;;2.33;;
57055;SDS011;42945;51.718;5.324;2022-08-01T11:33:12;6.18;;;2.03;;
57055;SDS011;42945;51.718;5.324;2022-08-01T11:36:16;5.70;;;2.20;;
57055;SDS011;42945;51.718;5.324;2022-08-01T11:41:28;8.93;;;2.75;;
57055;SDS011;42945;51.718;5.324;2022-08-01T11:49:33;6.72;;;3.00;;
57055;SDS011;42945;51.718;5.324;2022-08-01T11:54:53;8.27;;;2.40;;
57055;SDS011;42945;51.718;5.324;2022-08-01T11:57:26;5.57;;;2.25;;
57055;SDS011;42945;51.718;5.324;2022-08-01T11:59:56;8.48;;;2.65;;
57055;SDS011;42945;51.718;5.324;2022-08-01T12:04:57;7.45;;;2.60;;
57055;SDS011;42945;51.718;5.324;2022-08-01T12:07:25;5.50;;;2.47;;
57055;SDS011;42945;51.718;5.324;2022-08-01T12:12:26;6.07;;;2.40;;
57055;SDS011;42945;51.718;5.324;2022-08-01T12:14:52;8.95;;;2.22;;
57055;SDS011;42945;51.718;5.324;2022-08-01T12:17:32;9.65;;;2.50;;
57055;SDS011;42945;51.718;5.324;2022-08-01T12:20:00;11.32;;;2.58;;
57055;SDS011;42945;51.718;5.324;2022-08-01T12:22:26;7.28;;;2.60;;
57055;SDS011;42945;51.718;5.324;2022-08-01T12:24:51;4.90;;;2.22;;
57055;SDS011;42945;51.718;5.324;2022-08-01T12:27:25;8.48;;;2.03;;
57055;SDS011;42945;51.718;5.324;2022-08-01T12:29:52;9.45;;;2.00;;
57055;SDS011;42945;51.718;5.324;2022-08-01T12:32:21;8.38;;;2.22;;
57055;SDS011;42945;51.718;5.324;2022-08-01T12:34:53;6.07;;;2.05;;
57055;SDS011;42945;51.718;5.324;2022-08-01T12:37:19;15.55;;;2.30;;
57055;SDS011;42945;51.718;5.324;2022-08-01T12:39:45;5.82;;;2.17;;
57055;SDS011;42945;51.718;5.324;2022-08-01T12:42:12;7.65;;;2.40;;
57055;SDS011;42945;51.718;5.324;2022-08-01T12:44:38;11.25;;;2.28;;
57055;SDS011;42945;51.718;5.324;2022-08-01T12:47:08;5.55;;;2.13;;
57055;SDS011;42945;51.718;5.324;2022-08-01T12:49:37;9.20;;;2.10;;
57055;SDS011;42945;51.718;5.324;2022-08-01T12:52:06;7.50;;;2.10;;
57055;SDS011;42945;51.718;5.324;2022-08-01T12:54:58;6.88;;;2.00;;
57055;SDS011;42945;51.718;5.324;2022-08-01T12:57:27;7.82;;;1.95;;
57055;SDS011;42945;51.718;5.324;2022-08-01T13:02:40;11.75;;;2.30;;
57055;SDS011;42945;51.718;5.324;2022-08-01T13:05:06;9.82;;;2.17;;
57055;SDS011;42945;51.718;5.324;2022-08-01T13:07:35;7.30;;;2.03;;
57055;SDS011;42945;51.718;5.324;2022-08-01T13:10:29;10.80;;;2.50;;
57055;SDS011;42945;51.718;5.324;2022-08-01T13:12:56;10.75;;;2.28;;
57055;SDS011;42945;51.718;5.324;2022-08-01T13:15:27;6.93;;;1.98;;
57055;SDS011;42945;51.718;5.324;2022-08-01T13:17:56;10.70;;;2.08;;
57055;SDS011;42945;51.718;5.324;2022-08-01T13:20:29;9.45;;;1.88;;
57055;SDS011;42945;51.718;5.324;2022-08-01T13:25:55;7.65;;;1.92;;
57055;SDS011;42945;51.718;5.324;2022-08-01T13:28:24;6.10;;;1.50;;
57055;SDS011;42945;51.718;5.324;2022-08-01T13:30:58;5.68;;;1.70;;
57055;SDS011;42945;51.718;5.324;2022-08-01T13:33:44;5.72;;;1.42;;
57055;SDS011;42945;51.718;5.324;2022-08-01T13:36:16;5.78;;;1.10;;
57055;SDS011;42945;51.718;5.324;2022-08-01T13:38:41;7.07;;;1.45;;
57055;SDS011;42945;51.718;5.324;2022-08-01T13:41:32;7.97;;;1.70;;
57055;SDS011;42945;51.718;5.324;2022-08-01T13:47:48;7.40;;;1.40;;
57055;SDS011;42945;51.718;5.324;2022-08-01T13:50:14;6.57;;;1.90;;
57055;SDS011;42945;51.718;5.324;2022-08-01T13:53:21;5.70;;;1.40;;
57055;SDS011;42945;51.718;5.324;2022-08-01T13:59:07;10.27;;;1.48;;
57055;SDS011;42945;51.718;5.324;2022-08-01T14:01:50;4.20;;;1.17;;
57055;SDS011;42945;51.718;5.324;2022-08-01T14:04:21;7.85;;;2.33;;
57055;SDS011;42945;51.718;5.324;2022-08-01T14:07:05;6.95;;;1.60;;
57055;SDS011;42945;51.718;5.324;2022-08-01T14:09:39;10.88;;;1.88;;
57055;SDS011;42945;51.718;5.324;2022-08-01T14:12:08;5.93;;;1.45;;
57055;SDS011;42945;51.718;5.324;2022-08-01T14:14:36;11.57;;;1.85;;
57055;SDS011;42945;51.718;5.324;2022-08-01T14:17:12;8.77;;;1.63;;
57055;SDS011;42945;51.718;5.324;2022-08-01T14:19:49;6.22;;;1.60;;
57055;SDS011;42945;51.718;5.324;2022-08-01T14:22:14;6.15;;;1.33;;
57055;SDS011;42945;51.718;5.324;2022-08-01T14:24:43;5.55;;;1.60;;
57055;SDS011;42945;51.718;5.324;2022-08-01T14:27:14;6.40;;;1.40;;
57055;SDS011;42945;51.718;5.324;2022-08-01T14:29:45;9.60;;;1.65;;
57055;SDS011;42945;51.718;5.324;2022-08-01T14:35:05;7.22;;;1.33;;
57055;SDS011;42945;51.718;5.324;2022-08-01T14:37:37;5.25;;;1.55;;
57055;SDS011;42945;51.718;5.324;2022-08-01T14:40:15;8.45;;;1.50;;
57055;SDS011;42945;51.718;5.324;2022-08-01T14:42:45;7.18;;;1.15;;
57055;SDS011;42945;51.718;5.324;2022-08-01T14:45:16;6.13;;;1.05;;
57055;SDS011;42945;51.718;5.324;2022-08-01T14:47:45;7.30;;;1.20;;
57055;SDS011;42945;51.718;5.324;2022-08-01T14:50:11;7.10;;;1.35;;
57055;SDS011;42945;51.718;5.324;2022-08-01T14:52:39;4.00;;;0.80;;
57055;SDS011;42945;51.718;5.324;2022-08-01T14:55:06;5.97;;;1.00;;
57055;SDS011;42945;51.718;5.324;2022-08-01T14:57:33;6.20;;;0.90;;
57055;SDS011;42945;51.718;5.324;2022-08-01T14:59:59;3.08;;;0.88;;
57055;SDS011;42945;51.718;5.324;2022-08-01T15:02:24;4.85;;;1.17;;
57055;SDS011;42945;51.718;5.324;2022-08-01T15:04:50;5.20;;;1.02;;
57055;SDS011;42945;51.718;5.324;2022-08-01T15:07:16;4.03;;;1.10;;
57055;SDS011;42945;51.718;5.324;2022-08-01T15:09:42;3.17;;;0.90;;
57055;SDS011;42945;51.718;5.324;2022-08-01T15:12:08;5.68;;;1.08;;
57055;SDS011;42945;51.718;5.324;2022-08-01T15:14:33;3.53;;;0.80;;
57055;SDS011;42945;51.718;5.324;2022-08-01T15:17:15;1.67;;;0.53;;
57055;SDS011;42945;51.718;5.324;2022-08-01T15:19:44;2.72;;;0.93;;
57055;SDS011;42945;51.718;5.324;2022-08-01T15:22:10;2.90;;;1.00;;
57055;SDS011;42945;51.718;5.324;2022-08-01T15:24:36;2.78;;;1.10;;
57055;SDS011;42945;51.718;5.324;2022-08-01T15:27:02;3.45;;;0.90;;
57055;SDS011;42945;51.718;5.324;2022-08-01T15:29:27;3.45;;;0.80;;
57055;SDS011;42945;51.718;5.324;2022-08-01T15:31:53;5.82;;;0.88;;
57055;SDS011;42945;51.718;5.324;2022-08-01T15:34:18;6.82;;;0.90;;
57055;SDS011;42945;51.718;5.324;2022-08-01T15:36:46;1.05;;;0.60;;
57055;SDS011;42945;51.718;5.324;2022-08-01T15:39:11;2.83;;;1.50;;
57055;SDS011;42945;51.718;5.324;2022-08-01T15:41:39;3.03;;;0.70;;
57055;SDS011;42945;51.718;5.324;2022-08-01T15:44:05;3.90;;;0.88;;
57055;SDS011;42945;51.718;5.324;2022-08-01T15:49:21;3.15;;;0.80;;
57055;SDS011;42945;51.718;5.324;2022-08-01T15:51:52;3.47;;;0.80;;
57055;SDS011;42945;51.718;5.324;2022-08-01T15:54:17;4.90;;;0.60;;
57055;SDS011;42945;51.718;5.324;2022-08-01T15:56:44;3.22;;;0.88;;